Northern Expedition — CFN5364 — position and weather

sailwx.info

Track history (hours):
 
Tides and Currents Weather Stations Pressure Air Temp Water Temp Dewpoint Dewpoint Depression Visibility Wind Speed Wind Dir Waves Ship Positions

Northern Expedition

Last reported at 2016-Jun-29 16:15 UTC. Time now 2016-Jun-30 10:39 UTC.
Position N 51°10' W 127°50'.

Length 151 m; draft 5 m.

Type: Ship. MMSI: 316014054.

Date/timePositionNaut miles runAvg speedWind from/ knotsBaromVisibWave heightAir tempDewpointWater temp
2016-Jun-29 16:15N 51°10' W 127°50'1419.6
2016-Jun-29 15:33N 50°57' W 127°43'1615.7
2016-Jun-29 14:31N 50°44' W 127°28'0 0.0
2016-Jun-29 09:27N 50°44' W 127°27'6 1.5
2016-Jun-29 05:33N 50°50' W 127°28'2019.5
2016-Jun-29 04:33N 51°05' W 127°48'2420.6
2016-Jun-29 03:22N 51°29' W 127°51'2 0.0
2016-Jun-27 17:33N 51°30' W 127°52'1919.5
2016-Jun-27 16:33N 51°11' W 127°51'1919.4
2016-Jun-27 15:33N 50°53' W 127°38'12 4.8
2016-Jun-27 13:06N 50°44' W 127°27'0 0.0
2016-Jun-27 12:17N 50°44' W 127°27'0 0.0
2016-Jun-27 11:23N 50°44' W 127°27'0 0.0
2016-Jun-27 10:16N 50°44' W 127°27'3 3.7
2016-Jun-27 09:33N 50°46' W 127°27'1818.5
2016-Jun-27 08:33N 51°00' W 127°46'2020.1
2016-Jun-27 07:33N 51°20' W 127°52'13 0.3
2016-Jun-25 17:19N 51°33' W 127°52'1820.4
2016-Jun-25 16:27N 51°15' W 127°53'1820.2
2016-Jun-25 15:33N 50°58' W 127°44'1817.4
2016-Jun-25 14:32N 50°44' W 127°28'0 0.0
2016-Jun-25 11:31N 50°44' W 127°27'0 0.0
2016-Jun-25 10:31N 50°44' W 127°27'0 0.0
2016-Jun-25 06:33N 50°44' W 127°27'1312.9
2016-Jun-25 05:33N 50°54' W 127°39'1919.1
2016-Jun-25 04:33N 51°12' W 127°51'19 0.5
2016-Jun-23 17:26N 51°31' W 127°52'1819.7
2016-Jun-23 16:31N 51°13' W 127°52'1919.8
2016-Jun-23 15:33N 50°55' W 127°40'14 5.7
2016-Jun-23 13:04N 50°44' W 127°27'0 0.0
2016-Jun-23 12:28N 50°44' W 127°27'0 0.0
2016-Jun-23 11:21N 50°44' W 127°27'0 0.0
2016-Jun-23 10:27N 50°44' W 127°27'0 0.0
2016-Jun-23 09:27N 50°44' W 127°27'6 1.6
2016-Jun-23 05:33N 50°50' W 127°28'1918.9
2016-Jun-23 04:33N 51°04' W 127°48'27 0.8
2016-Jun-21 17:15N 51°31' W 127°52'1620.2
2016-Jun-21 16:27N 51°15' W 127°52'1920.2
2016-Jun-21 15:29N 50°57' W 127°42'1617.2
2016-Jun-21 14:33N 50°44' W 127°27'24 2.4
2016-Jun-21 04:34N 51°03' W 127°48'2420.0
2016-Jun-21 03:21N 51°28' W 127°51'5 0.1
2016-Jun-19 17:23N 51°33' W 127°52'1719.9
2016-Jun-19 16:33N 51°16' W 127°53'  
Track history (hours):
 
Tides and Currents Weather Stations Pressure Air Temp Water Temp Dewpoint Dewpoint Depression Visibility Wind Speed Wind Dir Waves Ship Positions

Northern Expedition

Last reported at 2016-Jun-29 16:15 UTC. Time now 2016-Jun-30 10:39 UTC.
Position N 51°10' W 127°50'.

Length 151 m; draft 5 m.

Type: Ship. MMSI: 316014054.

Date/timePositionNaut miles runAvg speedWind from/ knotsBaromVisibWave heightAir tempDewpointWater temp
2016-Jun-29 16:15N 51°10' W 127°50'1419.6
2016-Jun-29 15:33N 50°57' W 127°43'1615.7
2016-Jun-29 14:31N 50°44' W 127°28'0 0.0
2016-Jun-29 09:27N 50°44' W 127°27'6 1.5
2016-Jun-29 05:33N 50°50' W 127°28'2019.5
2016-Jun-29 04:33N 51°05' W 127°48'2420.6
2016-Jun-29 03:22N 51°29' W 127°51'2 0.0
2016-Jun-27 17:33N 51°30' W 127°52'1919.5
2016-Jun-27 16:33N 51°11' W 127°51'1919.4
2016-Jun-27 15:33N 50°53' W 127°38'12 4.8
2016-Jun-27 13:06N 50°44' W 127°27'0 0.0
2016-Jun-27 12:17N 50°44' W 127°27'0 0.0
2016-Jun-27 11:23N 50°44' W 127°27'0 0.0
2016-Jun-27 10:16N 50°44' W 127°27'3 3.7
2016-Jun-27 09:33N 50°46' W 127°27'1818.5
2016-Jun-27 08:33N 51°00' W 127°46'2020.1
2016-Jun-27 07:33N 51°20' W 127°52'13 0.3
2016-Jun-25 17:19N 51°33' W 127°52'1820.4
2016-Jun-25 16:27N 51°15' W 127°53'1820.2
2016-Jun-25 15:33N 50°58' W 127°44'1817.4
2016-Jun-25 14:32N 50°44' W 127°28'0 0.0
2016-Jun-25 11:31N 50°44' W 127°27'0 0.0
2016-Jun-25 10:31N 50°44' W 127°27'0 0.0
2016-Jun-25 06:33N 50°44' W 127°27'1312.9
2016-Jun-25 05:33N 50°54' W 127°39'1919.1
2016-Jun-25 04:33N 51°12' W 127°51'19 0.5
2016-Jun-23 17:26N 51°31' W 127°52'1819.7
2016-Jun-23 16:31N 51°13' W 127°52'1919.8
2016-Jun-23 15:33N 50°55' W 127°40'14 5.7
2016-Jun-23 13:04N 50°44' W 127°27'0 0.0
2016-Jun-23 12:28N 50°44' W 127°27'0 0.0
2016-Jun-23 11:21N 50°44' W 127°27'0 0.0
2016-Jun-23 10:27N 50°44' W 127°27'0 0.0
2016-Jun-23 09:27N 50°44' W 127°27'6 1.6
2016-Jun-23 05:33N 50°50' W 127°28'1918.9
2016-Jun-23 04:33N 51°04' W 127°48'27 0.8
2016-Jun-21 17:15N 51°31' W 127°52'1620.2
2016-Jun-21 16:27N 51°15' W 127°52'1920.2
2016-Jun-21 15:29N 50°57' W 127°42'1617.2
2016-Jun-21 14:33N 50°44' W 127°27'24 2.4
2016-Jun-21 04:34N 51°03' W 127°48'2420.0
2016-Jun-21 03:21N 51°28' W 127°51'5 0.1
2016-Jun-19 17:23N 51°33' W 127°52'1719.9
2016-Jun-19 16:33N 51°16' W 127°53'  

Dump ship's entire track history